createdAt,value
2017-08-15T00:00:49.374Z,1018.73
2017-08-15T00:00:49.950Z,1018.75
2017-08-15T00:00:50.573Z,1018.76
2017-08-15T00:00:51.144Z,1018.72
2017-08-15T00:00:51.745Z,1018.74
2017-08-15T00:00:52.340Z,1018.77
2017-08-15T00:00:52.940Z,1018.73
2017-08-15T00:00:53.548Z,1018.73
2017-08-15T00:01:46.998Z,1018.72
2017-08-15T00:01:47.593Z,1018.72
2017-08-15T00:01:48.200Z,1018.69
2017-08-15T00:01:48.797Z,1018.69
2017-08-15T00:01:49.394Z,1018.71
2017-08-15T00:01:49.993Z,1018.68
2017-08-15T00:01:50.600Z,1018.72
2017-08-15T00:01:51.200Z,1018.69
2017-08-15T00:02:57.345Z,1018.68
2017-08-15T00:02:57.942Z,1018.68
2017-08-15T00:02:58.546Z,1018.66
2017-08-15T00:02:59.146Z,1018.70
2017-08-15T00:02:59.740Z,1018.68
2017-08-15T00:03:00.340Z,1018.67
2017-08-15T00:03:00.948Z,1018.67
2017-08-15T00:03:01.544Z,1018.69
2017-08-15T00:03:55.001Z,1018.71
2017-08-15T00:03:55.598Z,1018.70
2017-08-15T00:03:56.204Z,1018.67
2017-08-15T00:03:56.801Z,1018.69
2017-08-15T00:03:57.411Z,1018.68
2017-08-15T00:03:58.003Z,1018.67
2017-08-15T00:03:58.598Z,1018.70
2017-08-15T00:03:59.193Z,1018.69
2017-08-15T00:04:52.656Z,1018.67
2017-08-15T00:04:53.253Z,1018.64
2017-08-15T00:04:53.850Z,1018.67
2017-08-15T00:04:54.449Z,1018.65
2017-08-15T00:04:55.046Z,1018.66
2017-08-15T00:04:55.649Z,1018.66
2017-08-15T00:04:56.249Z,1018.66
2017-08-15T00:04:56.853Z,1018.66
2017-08-15T00:05:50.334Z,1018.66
2017-08-15T00:05:50.900Z,1018.67
2017-08-15T00:05:51.497Z,1018.69
2017-08-15T00:05:52.104Z,1018.64
2017-08-15T00:05:52.701Z,1018.65
2017-08-15T00:05:53.300Z,1018.70
2017-08-15T00:05:53.896Z,1018.69
2017-08-15T00:05:54.502Z,1018.67
2017-08-15T00:06:48.984Z,1018.66
2017-08-15T00:06:49.582Z,1018.69
2017-08-15T00:06:50.177Z,1018.67
2017-08-15T00:06:50.780Z,1018.64
2017-08-15T00:06:51.372Z,1018.64
2017-08-15T00:06:51.976Z,1018.65
2017-08-15T00:06:52.577Z,1018.64
2017-08-15T00:06:53.172Z,1018.63
2017-08-15T00:07:46.638Z,1018.62
2017-08-15T00:07:47.229Z,1018.61
2017-08-15T00:07:47.829Z,1018.60
2017-08-15T00:07:48.432Z,1018.64
2017-08-15T00:07:49.024Z,1018.64
2017-08-15T00:07:49.627Z,1018.65
2017-08-15T00:07:50.224Z,1018.66
2017-08-15T00:07:50.825Z,1018.64
2017-08-15T00:08:44.288Z,1018.64
2017-08-15T00:08:44.876Z,1018.62
2017-08-15T00:08:45.476Z,1018.62
2017-08-15T00:08:46.080Z,1018.65
2017-08-15T00:08:46.679Z,1018.63
2017-08-15T00:08:47.275Z,1018.63
2017-08-15T00:08:47.877Z,1018.64
2017-08-15T00:08:48.480Z,1018.64
2017-08-15T00:09:42.955Z,1018.63
2017-08-15T00:09:43.552Z,1018.61
2017-08-15T00:09:44.156Z,1018.63
2017-08-15T00:09:44.752Z,1018.66
2017-08-15T00:09:45.356Z,1018.61
2017-08-15T00:09:45.959Z,1018.60
2017-08-15T00:09:46.555Z,1018.62
2017-08-15T00:09:47.159Z,1018.65
2017-08-15T00:10:41.634Z,1018.63
2017-08-15T00:10:42.230Z,1018.59
2017-08-15T00:10:42.829Z,1018.61
2017-08-15T00:10:43.433Z,1018.59
2017-08-15T00:10:44.033Z,1018.60
2017-08-15T00:10:44.633Z,1018.59
2017-08-15T00:10:45.233Z,1018.60
2017-08-15T00:10:45.834Z,1018.57
2017-08-15T00:11:40.339Z,1018.58
2017-08-15T00:11:40.906Z,1018.59
2017-08-15T00:11:41.503Z,1018.60
2017-08-15T00:11:42.103Z,1018.57
2017-08-15T00:11:42.703Z,1018.58
2017-08-15T00:11:43.306Z,1018.58
2017-08-15T00:11:43.902Z,1018.59
2017-08-15T00:11:44.502Z,1018.62
2017-08-15T00:12:37.959Z,1018.60
2017-08-15T00:12:38.556Z,1018.56
2017-08-15T00:12:39.158Z,1018.57
2017-08-15T00:12:39.758Z,1018.59
2017-08-15T00:12:40.355Z,1018.55
2017-08-15T00:12:40.959Z,1018.61
2017-08-15T00:12:41.558Z,1018.57
2017-08-15T00:12:42.164Z,1018.58
2017-08-15T00:13:36.640Z,1018.59
2017-08-15T00:13:37.235Z,1018.58
2017-08-15T00:13:37.841Z,1018.59
2017-08-15T00:13:38.440Z,1018.56
2017-08-15T00:13:39.034Z,1018.57
2017-08-15T00:13:39.635Z,1018.54
2017-08-15T00:13:40.234Z,1018.57
2017-08-15T00:13:40.831Z,1018.55
2017-08-15T00:14:34.289Z,1018.56
2017-08-15T00:14:34.886Z,1018.57
2017-08-15T00:14:35.483Z,1018.57
2017-08-15T00:14:36.082Z,1018.57
2017-08-15T00:14:36.686Z,1018.59
2017-08-15T00:14:37.283Z,1018.55
2017-08-15T00:14:37.885Z,1018.55
2017-08-15T00:14:38.485Z,1018.57
2017-08-15T00:15:32.964Z,1018.56
2017-08-15T00:15:33.561Z,1018.51
2017-08-15T00:15:34.163Z,1018.55
2017-08-15T00:15:34.763Z,1018.55
2017-08-15T00:15:35.361Z,1018.55
2017-08-15T00:15:35.957Z,1018.55
2017-08-15T00:15:36.559Z,1018.53
2017-08-15T00:15:37.161Z,1018.53
2017-08-15T00:16:30.617Z,1018.50
2017-08-15T00:16:31.212Z,1018.53
2017-08-15T00:16:31.814Z,1018.55
2017-08-15T00:16:32.412Z,1018.56
2017-08-15T00:16:33.012Z,1018.55
2017-08-15T00:16:33.608Z,1018.56
2017-08-15T00:16:34.209Z,1018.52
2017-08-15T00:16:34.812Z,1018.57
2017-08-15T00:17:28.288Z,1018.54
2017-08-15T00:17:28.865Z,1018.59
2017-08-15T00:17:29.469Z,1018.53
2017-08-15T00:17:30.069Z,1018.55
2017-08-15T00:17:30.668Z,1018.54
2017-08-15T00:17:31.268Z,1018.57
2017-08-15T00:17:31.864Z,1018.55
2017-08-15T00:17:32.465Z,1018.56
2017-08-15T00:18:25.920Z,1018.55
2017-08-15T00:18:26.517Z,1018.54
2017-08-15T00:18:27.123Z,1018.54
2017-08-15T00:18:27.721Z,1018.56
2017-08-15T00:18:28.315Z,1018.54
2017-08-15T00:18:28.912Z,1018.52
2017-08-15T00:18:29.510Z,1018.54
2017-08-15T00:18:30.113Z,1018.56
2017-08-15T00:19:23.575Z,1018.51
2017-08-15T00:19:24.170Z,1018.48
2017-08-15T00:19:24.766Z,1018.50
2017-08-15T00:19:25.364Z,1018.48
2017-08-15T00:19:25.969Z,1018.51
2017-08-15T00:19:26.564Z,1018.50
2017-08-15T00:19:27.164Z,1018.53
2017-08-15T00:19:27.767Z,1018.51
2017-08-15T00:20:22.246Z,1018.49
2017-08-15T00:20:22.838Z,1018.51
2017-08-15T00:20:23.443Z,1018.49
2017-08-15T00:20:24.050Z,1018.51
2017-08-15T00:20:24.643Z,1018.48
2017-08-15T00:20:25.244Z,1018.51
2017-08-15T00:20:25.842Z,1018.48
2017-08-15T00:20:26.443Z,1018.53
2017-08-15T00:21:19.896Z,1018.53
2017-08-15T00:21:20.496Z,1018.52
2017-08-15T00:21:21.095Z,1018.48
2017-08-15T00:21:21.692Z,1018.51
2017-08-15T00:21:22.296Z,1018.51
2017-08-15T00:21:22.896Z,1018.47
2017-08-15T00:21:23.495Z,1018.47
2017-08-15T00:21:24.095Z,1018.50
2017-08-15T00:22:18.607Z,1018.45
2017-08-15T00:22:19.170Z,1018.48
2017-08-15T00:22:19.774Z,1018.48
2017-08-15T00:22:20.367Z,1018.49
2017-08-15T00:22:20.969Z,1018.49
2017-08-15T00:22:21.567Z,1018.49
2017-08-15T00:22:22.169Z,1018.47
2017-08-15T00:22:22.766Z,1018.49
2017-08-15T00:23:17.252Z,1018.46
2017-08-15T00:23:17.846Z,1018.47
2017-08-15T00:23:18.446Z,1018.48
2017-08-15T00:23:19.047Z,1018.50
2017-08-15T00:23:19.642Z,1018.46
2017-08-15T00:23:20.244Z,1018.48
2017-08-15T00:23:20.842Z,1018.49
2017-08-15T00:23:21.441Z,1018.47
2017-08-15T00:24:22.475Z,1018.43
2017-08-15T00:24:23.076Z,1018.47
2017-08-15T00:24:23.672Z,1018.45
2017-08-15T00:24:24.272Z,1018.47
2017-08-15T00:24:24.872Z,1018.47
2017-08-15T00:24:25.472Z,1018.48
2017-08-15T00:24:26.071Z,1018.47
2017-08-15T00:24:26.675Z,1018.47
2017-08-15T00:24:27.279Z,1018.49
2017-08-15T00:24:27.875Z,1018.48
2017-08-15T00:24:28.481Z,1018.46
2017-08-15T00:24:29.078Z,1018.45
2017-08-15T00:25:26.585Z,1018.46
2017-08-15T00:25:27.181Z,1018.44
2017-08-15T00:25:27.778Z,1018.43
2017-08-15T00:26:21.263Z,1018.43
2017-08-15T00:26:21.860Z,1018.44
2017-08-15T00:26:22.461Z,1018.46
2017-08-15T00:26:23.066Z,1018.43
2017-08-15T00:26:23.665Z,1018.43
2017-08-15T00:26:24.260Z,1018.44
2017-08-15T00:26:24.863Z,1018.45
2017-08-15T00:26:25.458Z,1018.42
2017-08-15T00:27:18.949Z,1018.44
2017-08-15T00:27:19.512Z,1018.43
2017-08-15T00:27:20.109Z,1018.43
2017-08-15T00:27:20.715Z,1018.42
2017-08-15T00:27:21.308Z,1018.44
2017-08-15T00:27:21.912Z,1018.42
2017-08-15T00:27:22.509Z,1018.40
2017-08-15T00:27:23.108Z,1018.44
2017-08-15T00:28:16.572Z,1018.39
2017-08-15T00:28:17.165Z,1018.42
2017-08-15T00:28:17.764Z,1018.39
2017-08-15T00:28:18.367Z,1018.41
2017-08-15T00:28:18.966Z,1018.42
2017-08-15T00:28:19.565Z,1018.42
2017-08-15T00:28:20.163Z,1018.39
2017-08-15T00:28:20.761Z,1018.40
2017-08-15T00:29:14.218Z,1018.41
2017-08-15T00:29:14.817Z,1018.45
2017-08-15T00:29:15.418Z,1018.43
2017-08-15T00:29:16.016Z,1018.38
2017-08-15T00:29:16.613Z,1018.43
2017-08-15T00:29:17.216Z,1018.40
2017-08-15T00:29:17.815Z,1018.39
2017-08-15T00:29:18.419Z,1018.42
2017-08-15T00:30:11.886Z,1018.45
2017-08-15T00:30:12.464Z,1018.39
2017-08-15T00:30:13.063Z,1018.45
2017-08-15T00:30:13.669Z,1018.41
2017-08-15T00:30:14.270Z,1018.43
2017-08-15T00:30:14.870Z,1018.43
2017-08-15T00:30:15.470Z,1018.44
2017-08-15T00:30:16.067Z,1018.42
2017-08-15T00:31:09.527Z,1018.39
2017-08-15T00:31:10.121Z,1018.37
2017-08-15T00:31:10.722Z,1018.38
2017-08-15T00:31:11.320Z,1018.39
2017-08-15T00:31:11.921Z,1018.38
2017-08-15T00:31:12.520Z,1018.35
2017-08-15T00:31:13.115Z,1018.36
2017-08-15T00:31:13.717Z,1018.35
2017-08-15T00:32:07.176Z,1018.41
2017-08-15T00:32:07.773Z,1018.40
2017-08-15T00:32:08.373Z,1018.38
2017-08-15T00:32:08.974Z,1018.41
2017-08-15T00:32:09.570Z,1018.39
2017-08-15T00:32:10.175Z,1018.44
2017-08-15T00:32:10.768Z,1018.36
2017-08-15T00:32:11.369Z,1018.41
2017-08-15T00:33:04.853Z,1018.37
2017-08-15T00:33:05.423Z,1018.39
2017-08-15T00:33:06.022Z,1018.40
2017-08-15T00:33:06.625Z,1018.37
2017-08-15T00:33:07.222Z,1018.37
2017-08-15T00:33:07.822Z,1018.37
2017-08-15T00:33:08.425Z,1018.38
2017-08-15T00:33:09.025Z,1018.41
2017-08-15T00:34:02.476Z,1018.36
2017-08-15T00:34:03.074Z,1018.37
2017-08-15T00:34:03.670Z,1018.36
2017-08-15T00:34:04.276Z,1018.36
2017-08-15T00:34:04.876Z,1018.36
2017-08-15T00:34:05.473Z,1018.35
2017-08-15T00:34:06.070Z,1018.36
2017-08-15T00:34:06.674Z,1018.35
2017-08-15T00:35:00.130Z,1018.35
2017-08-15T00:35:00.729Z,1018.34
2017-08-15T00:35:01.338Z,1018.37
2017-08-15T00:35:01.926Z,1018.37
2017-08-15T00:35:02.525Z,1018.37
2017-08-15T00:35:03.124Z,1018.35
2017-08-15T00:35:03.725Z,1018.37
2017-08-15T00:35:04.321Z,1018.39
2017-08-15T00:35:57.779Z,1018.33
2017-08-15T00:35:58.379Z,1018.34
2017-08-15T00:35:58.977Z,1018.33
2017-08-15T00:35:59.577Z,1018.30
2017-08-15T00:36:00.177Z,1018.34
2017-08-15T00:36:00.779Z,1018.33
2017-08-15T00:36:01.379Z,1018.34
2017-08-15T00:36:01.981Z,1018.35
2017-08-15T00:36:55.436Z,1018.33
2017-08-15T00:36:56.038Z,1018.35
2017-08-15T00:36:56.631Z,1018.33
2017-08-15T00:36:57.228Z,1018.33
2017-08-15T00:36:57.829Z,1018.33
2017-08-15T00:36:58.429Z,1018.35
2017-08-15T00:36:59.027Z,1018.35
2017-08-15T00:36:59.632Z,1018.34
2017-08-15T00:37:54.111Z,1018.35
2017-08-15T00:37:54.709Z,1018.32
2017-08-15T00:37:55.299Z,1018.34
2017-08-15T00:37:55.902Z,1018.34
2017-08-15T00:37:56.502Z,1018.31
2017-08-15T00:37:57.099Z,1018.32
2017-08-15T00:37:57.703Z,1018.33
2017-08-15T00:37:58.302Z,1018.31
2017-08-15T00:38:51.786Z,1018.31
2017-08-15T00:38:52.390Z,1018.31
2017-08-15T00:38:52.958Z,1018.32
2017-08-15T00:38:53.560Z,1018.30
2017-08-15T00:38:54.159Z,1018.32
2017-08-15T00:38:54.761Z,1018.33
2017-08-15T00:38:55.352Z,1018.33
2017-08-15T00:38:55.953Z,1018.31
2017-08-15T00:39:49.415Z,1018.32
2017-08-15T00:39:50.014Z,1018.30
2017-08-15T00:39:50.611Z,1018.29
2017-08-15T00:39:51.207Z,1018.32
2017-08-15T00:39:51.807Z,1018.30
2017-08-15T00:39:52.407Z,1018.31
2017-08-15T00:39:53.011Z,1018.31
2017-08-15T00:39:53.603Z,1018.33
2017-08-15T00:40:48.085Z,1018.33
2017-08-15T00:40:48.682Z,1018.31
2017-08-15T00:40:49.282Z,1018.33
2017-08-15T00:40:49.886Z,1018.33
2017-08-15T00:40:50.485Z,1018.34
2017-08-15T00:40:51.081Z,1018.33
2017-08-15T00:40:51.680Z,1018.36
2017-08-15T00:40:52.282Z,1018.32
2017-08-15T00:41:45.741Z,1018.33
2017-08-15T00:41:46.331Z,1018.34
2017-08-15T00:41:46.931Z,1018.34
2017-08-15T00:41:47.532Z,1018.31
2017-08-15T00:41:48.130Z,1018.32
2017-08-15T00:41:48.736Z,1018.30
2017-08-15T00:41:49.331Z,1018.34
2017-08-15T00:41:49.930Z,1018.33
2017-08-15T00:42:43.394Z,1018.35
2017-08-15T00:42:43.988Z,1018.36
2017-08-15T00:42:44.590Z,1018.37
2017-08-15T00:42:45.185Z,1018.33
2017-08-15T00:42:45.790Z,1018.34
2017-08-15T00:42:46.387Z,1018.32
2017-08-15T00:42:46.995Z,1018.31
2017-08-15T00:42:47.585Z,1018.32
2017-08-15T00:43:41.063Z,1018.32
2017-08-15T00:43:41.643Z,1018.32
2017-08-15T00:43:42.234Z,1018.30
2017-08-15T00:43:42.838Z,1018.32
2017-08-15T00:43:43.442Z,1018.34
2017-08-15T00:43:44.045Z,1018.32
2017-08-15T00:43:44.639Z,1018.31
2017-08-15T00:43:45.236Z,1018.34
2017-08-15T00:44:39.715Z,1018.28
2017-08-15T00:44:40.310Z,1018.30
2017-08-15T00:44:40.912Z,1018.28
2017-08-15T00:44:41.513Z,1018.32
2017-08-15T00:44:42.113Z,1018.29
2017-08-15T00:44:42.717Z,1018.30
2017-08-15T00:44:43.316Z,1018.31
2017-08-15T00:44:43.916Z,1018.30
2017-08-15T00:45:37.368Z,1018.27
2017-08-15T00:45:37.968Z,1018.27
2017-08-15T00:45:38.562Z,1018.27
2017-08-15T00:45:39.168Z,1018.30
2017-08-15T00:45:39.766Z,1018.29
2017-08-15T00:45:40.366Z,1018.25
2017-08-15T00:45:40.965Z,1018.29
2017-08-15T00:45:41.561Z,1018.30
2017-08-15T00:46:36.047Z,1018.30
2017-08-15T00:46:36.650Z,1018.26
2017-08-15T00:46:37.240Z,1018.30
2017-08-15T00:46:37.838Z,1018.30
2017-08-15T00:46:38.442Z,1018.28
2017-08-15T00:46:39.043Z,1018.28
2017-08-15T00:46:39.640Z,1018.31
2017-08-15T00:46:40.237Z,1018.30
2017-08-15T00:47:34.717Z,1018.27
2017-08-15T00:47:35.318Z,1018.26
2017-08-15T00:47:35.915Z,1018.25
2017-08-15T00:47:36.514Z,1018.26
2017-08-15T00:47:37.119Z,1018.28
2017-08-15T00:47:37.717Z,1018.27
2017-08-15T00:47:38.320Z,1018.29
2017-08-15T00:47:38.916Z,1018.25
2017-08-15T00:48:32.420Z,1018.24
2017-08-15T00:48:32.966Z,1018.26
2017-08-15T00:48:33.564Z,1018.26
2017-08-15T00:48:34.164Z,1018.23
2017-08-15T00:48:34.765Z,1018.26
2017-08-15T00:48:35.368Z,1018.25
2017-08-15T00:48:35.974Z,1018.25
2017-08-15T00:48:36.571Z,1018.23
2017-08-15T00:49:30.027Z,1018.22
2017-08-15T00:49:30.617Z,1018.24
2017-08-15T00:49:31.216Z,1018.23
2017-08-15T00:49:31.817Z,1018.23
2017-08-15T00:49:32.420Z,1018.25
2017-08-15T00:49:33.018Z,1018.24
2017-08-15T00:49:33.621Z,1018.22
2017-08-15T00:49:34.217Z,1018.26
2017-08-15T00:50:27.678Z,1018.21
2017-08-15T00:50:28.273Z,1018.19
2017-08-15T00:50:28.870Z,1018.22
2017-08-15T00:50:29.472Z,1018.20
2017-08-15T00:50:30.072Z,1018.22
2017-08-15T00:50:30.669Z,1018.20
2017-08-15T00:50:31.268Z,1018.22
2017-08-15T00:50:31.875Z,1018.18
2017-08-15T00:51:26.354Z,1018.17
2017-08-15T00:51:26.950Z,1018.18
2017-08-15T00:51:27.550Z,1018.16
2017-08-15T00:51:28.147Z,1018.19
2017-08-15T00:51:28.748Z,1018.19
2017-08-15T00:51:29.349Z,1018.18
2017-08-15T00:51:29.949Z,1018.21
2017-08-15T00:51:30.548Z,1018.22
2017-08-15T00:52:24.006Z,1018.19
2017-08-15T00:52:24.595Z,1018.20
2017-08-15T00:52:25.198Z,1018.19
2017-08-15T00:52:25.796Z,1018.19
2017-08-15T00:52:26.399Z,1018.16
2017-08-15T00:52:26.998Z,1018.19
2017-08-15T00:52:27.600Z,1018.19
2017-08-15T00:52:28.199Z,1018.22
2017-08-15T00:53:21.650Z,1018.17
2017-08-15T00:53:22.247Z,1018.18
2017-08-15T00:53:22.851Z,1018.18
2017-08-15T00:53:23.447Z,1018.21
2017-08-15T00:53:24.047Z,1018.18
2017-08-15T00:53:24.649Z,1018.19
2017-08-15T00:53:25.250Z,1018.22
2017-08-15T00:53:25.849Z,1018.15
2017-08-15T00:54:19.332Z,1018.17
2017-08-15T00:54:19.907Z,1018.16
2017-08-15T00:54:20.504Z,1018.15
2017-08-15T00:54:21.104Z,1018.15
2017-08-15T00:54:21.700Z,1018.16
2017-08-15T00:54:22.300Z,1018.12
2017-08-15T00:54:22.902Z,1018.12
2017-08-15T00:54:23.498Z,1018.18
2017-08-15T00:55:16.961Z,1018.14
2017-08-15T00:55:17.559Z,1018.14
2017-08-15T00:55:18.154Z,1018.14
2017-08-15T00:55:18.757Z,1018.14
2017-08-15T00:55:19.355Z,1018.13
2017-08-15T00:55:19.953Z,1018.14
2017-08-15T00:55:20.553Z,1018.15
2017-08-15T00:55:21.154Z,1018.13
2017-08-15T00:56:14.606Z,1018.12
2017-08-15T00:56:15.205Z,1018.15
2017-08-15T00:56:15.810Z,1018.13
2017-08-15T00:56:16.410Z,1018.13
2017-08-15T00:56:17.004Z,1018.10
2017-08-15T00:56:17.606Z,1018.14
2017-08-15T00:56:18.207Z,1018.14
2017-08-15T00:56:18.808Z,1018.13
2017-08-15T00:57:13.280Z,1018.12
2017-08-15T00:57:13.883Z,1018.15
2017-08-15T00:57:14.480Z,1018.14
2017-08-15T00:57:15.079Z,1018.16
2017-08-15T00:57:15.681Z,1018.14
2017-08-15T00:57:16.280Z,1018.11
2017-08-15T00:57:16.881Z,1018.15
2017-08-15T00:57:17.483Z,1018.15
2017-08-15T00:58:10.934Z,1018.10
2017-08-15T00:58:11.534Z,1018.13
2017-08-15T00:58:12.133Z,1018.12
2017-08-15T00:58:12.733Z,1018.10
2017-08-15T00:58:13.330Z,1018.11
2017-08-15T00:58:13.933Z,1018.12
2017-08-15T00:58:14.536Z,1018.11
2017-08-15T00:58:15.130Z,1018.12
2017-08-15T00:59:09.642Z,1018.11
2017-08-15T00:59:10.211Z,1018.11
2017-08-15T00:59:10.812Z,1018.11
2017-08-15T00:59:11.412Z,1018.12
2017-08-15T00:59:12.004Z,1018.11
2017-08-15T00:59:12.606Z,1018.09
2017-08-15T00:59:13.207Z,1018.10
2017-08-15T00:59:13.804Z,1018.09
2017-08-15T01:00:08.291Z,1018.07
2017-08-15T01:00:08.887Z,1018.06
2017-08-15T01:00:09.483Z,1018.05
2017-08-15T01:00:10.086Z,1018.08
2017-08-15T01:00:10.680Z,1018.07
2017-08-15T01:00:11.280Z,1018.07
2017-08-15T01:00:11.880Z,1018.07
2017-08-15T01:00:12.483Z,1018.06
2017-08-15T01:01:06.966Z,1018.03
2017-08-15T01:01:07.560Z,1018.04
2017-08-15T01:01:08.160Z,1018.02
2017-08-15T01:01:08.762Z,1018.02
2017-08-15T01:01:09.362Z,1018.08
2017-08-15T01:01:09.955Z,1018.04
2017-08-15T01:01:10.559Z,1018.02
2017-08-15T01:01:11.159Z,1018.04
2017-08-15T01:02:05.645Z,1018.01
2017-08-15T01:02:06.234Z,1018.01
2017-08-15T01:02:06.834Z,1017.98
2017-08-15T01:02:07.434Z,1017.98
2017-08-15T01:02:08.039Z,1018.01
2017-08-15T01:02:08.636Z,1018.00
2017-08-15T01:02:09.234Z,1018.00
2017-08-15T01:02:09.828Z,1018.01
2017-08-15T01:03:04.313Z,1017.99
2017-08-15T01:03:04.914Z,1017.99
2017-08-15T01:03:05.511Z,1018.00
2017-08-15T01:03:06.114Z,1018.01
2017-08-15T01:03:06.717Z,1017.99
2017-08-15T01:03:07.310Z,1018.03
2017-08-15T01:03:07.910Z,1018.00
2017-08-15T01:03:08.509Z,1018.03
2017-08-15T01:04:01.966Z,1018.01
2017-08-15T01:04:02.561Z,1017.95
2017-08-15T01:04:03.160Z,1017.99
2017-08-15T01:04:03.764Z,1017.97
2017-08-15T01:04:04.362Z,1017.98
2017-08-15T01:04:04.963Z,1017.96
2017-08-15T01:04:05.563Z,1018.01
2017-08-15T01:04:06.164Z,1017.97
2017-08-15T01:04:59.640Z,1017.97
2017-08-15T01:05:00.216Z,1017.96
2017-08-15T01:05:00.810Z,1017.98
2017-08-15T01:05:01.411Z,1017.96
2017-08-15T01:05:02.014Z,1017.98
2017-08-15T01:05:02.613Z,1017.96
2017-08-15T01:05:03.210Z,1017.96
2017-08-15T01:05:03.810Z,1017.98
2017-08-15T01:05:57.273Z,1017.98
2017-08-15T01:05:57.868Z,1017.97
2017-08-15T01:05:58.466Z,1017.95
2017-08-15T01:05:59.070Z,1017.94
2017-08-15T01:05:59.669Z,1017.95
2017-08-15T01:06:00.265Z,1017.99
2017-08-15T01:06:00.870Z,1017.96
2017-08-15T01:06:01.466Z,1017.94
2017-08-15T01:06:54.920Z,1017.97
2017-08-15T01:06:55.518Z,1017.97
2017-08-15T01:06:56.118Z,1017.97
2017-08-15T01:06:56.718Z,1017.93
2017-08-15T01:06:57.318Z,1017.97
2017-08-15T01:06:57.921Z,1017.97
2017-08-15T01:06:58.515Z,1017.95
2017-08-15T01:06:59.114Z,1017.96
2017-08-15T01:07:52.577Z,1018.01
2017-08-15T01:07:53.174Z,1017.97
2017-08-15T01:07:53.772Z,1017.99
2017-08-15T01:07:54.370Z,1018.00
2017-08-15T01:07:54.971Z,1017.98
2017-08-15T01:07:55.570Z,1018.00
2017-08-15T01:07:56.172Z,1017.99
2017-08-15T01:07:56.772Z,1017.98
2017-08-15T01:08:51.251Z,1017.97
2017-08-15T01:08:51.849Z,1017.93
2017-08-15T01:08:52.441Z,1017.97
2017-08-15T01:08:53.042Z,1017.93
2017-08-15T01:08:53.644Z,1017.94
2017-08-15T01:08:54.244Z,1017.94
2017-08-15T01:08:54.843Z,1017.95
2017-08-15T01:08:55.447Z,1017.94
2017-08-15T01:09:48.919Z,1017.97
2017-08-15T01:09:49.496Z,1017.95
2017-08-15T01:09:50.097Z,1017.94
2017-08-15T01:09:50.702Z,1017.94
2017-08-15T01:09:51.294Z,1017.98
2017-08-15T01:09:51.893Z,1017.94
2017-08-15T01:09:52.493Z,1017.95
2017-08-15T01:09:53.097Z,1017.96
2017-08-15T01:10:46.556Z,1017.95
2017-08-15T01:10:47.152Z,1017.93
2017-08-15T01:10:47.754Z,1017.97
2017-08-15T01:10:48.349Z,1017.98
2017-08-15T01:10:48.948Z,1017.95
2017-08-15T01:10:49.551Z,1017.95
2017-08-15T01:10:50.151Z,1017.95
2017-08-15T01:10:50.747Z,1017.94
2017-08-15T01:11:45.233Z,1017.94
2017-08-15T01:11:45.823Z,1017.95
2017-08-15T01:11:46.423Z,1017.92
2017-08-15T01:11:47.022Z,1017.97
2017-08-15T01:11:47.620Z,1017.99
2017-08-15T01:11:48.222Z,1017.96
2017-08-15T01:11:48.819Z,1017.98
2017-08-15T01:11:49.420Z,1017.97
2017-08-15T01:12:43.918Z,1017.96
2017-08-15T01:12:44.500Z,1017.93
2017-08-15T01:12:45.103Z,1017.95
2017-08-15T01:12:45.702Z,1017.92
2017-08-15T01:12:46.299Z,1017.93
2017-08-15T01:12:46.895Z,1017.91
2017-08-15T01:12:47.498Z,1017.95
2017-08-15T01:12:48.095Z,1017.96
2017-08-15T01:13:41.562Z,1017.94
2017-08-15T01:13:42.152Z,1017.95
2017-08-15T01:13:42.748Z,1017.93
2017-08-15T01:13:43.355Z,1017.94
2017-08-15T01:13:43.963Z,1017.92
2017-08-15T01:13:44.554Z,1017.90
2017-08-15T01:13:45.155Z,1017.90
2017-08-15T01:13:45.754Z,1017.93
2017-08-15T01:14:39.238Z,1017.91
2017-08-15T01:14:39.803Z,1017.89
2017-08-15T01:14:40.406Z,1017.89
2017-08-15T01:14:41.004Z,1017.93
2017-08-15T01:14:41.603Z,1017.90
2017-08-15T01:14:42.202Z,1017.92
2017-08-15T01:14:42.801Z,1017.87
2017-08-15T01:14:43.398Z,1017.88
2017-08-15T01:15:36.854Z,1017.91
2017-08-15T01:15:37.454Z,1017.88
2017-08-15T01:15:38.054Z,1017.90
2017-08-15T01:15:38.651Z,1017.89
2017-08-15T01:15:39.250Z,1017.88
2017-08-15T01:15:39.851Z,1017.87
2017-08-15T01:15:40.454Z,1017.89
2017-08-15T01:15:41.055Z,1017.90
2017-08-15T01:16:35.530Z,1017.91
2017-08-15T01:16:36.127Z,1017.88
2017-08-15T01:16:36.727Z,1017.87
2017-08-15T01:16:37.354Z,1017.88
2017-08-15T01:16:37.937Z,1017.89
2017-08-15T01:16:38.538Z,1017.88
2017-08-15T01:16:39.133Z,1017.90
2017-08-15T01:16:39.731Z,1017.86
2017-08-15T01:17:34.210Z,1017.92
2017-08-15T01:17:34.808Z,1017.92
2017-08-15T01:17:35.414Z,1017.91
2017-08-15T01:17:36.009Z,1017.92
2017-08-15T01:17:36.605Z,1017.92
2017-08-15T01:17:37.211Z,1017.90
2017-08-15T01:17:37.802Z,1017.90
2017-08-15T01:17:38.403Z,1017.93
2017-08-15T01:18:33.404Z,1017.91
2017-08-15T01:18:33.994Z,1017.91
2017-08-15T01:18:34.591Z,1017.90
2017-08-15T01:18:35.193Z,1017.93
2017-08-15T01:18:35.794Z,1017.90
2017-08-15T01:18:36.400Z,1017.94
2017-08-15T01:18:36.988Z,1017.90
2017-08-15T01:19:30.541Z,1017.90
2017-08-15T01:19:31.146Z,1017.90
2017-08-15T01:19:31.734Z,1017.89
2017-08-15T01:19:32.333Z,1017.93
2017-08-15T01:19:32.932Z,1017.92
2017-08-15T01:19:33.533Z,1017.90
2017-08-15T01:19:34.138Z,1017.90
2017-08-15T01:19:34.734Z,1017.91
2017-08-15T01:20:28.222Z,1017.91
2017-08-15T01:20:28.790Z,1017.92
2017-08-15T01:20:29.390Z,1017.91
2017-08-15T01:20:29.985Z,1017.88
2017-08-15T01:20:30.587Z,1017.92
2017-08-15T01:20:31.184Z,1017.93
2017-08-15T01:20:31.781Z,1017.92
2017-08-15T01:20:32.388Z,1017.91
2017-08-15T01:21:25.840Z,1017.90
2017-08-15T01:21:26.436Z,1017.91
2017-08-15T01:21:27.042Z,1017.93
2017-08-15T01:21:27.636Z,1017.92
2017-08-15T01:21:28.232Z,1017.88
2017-08-15T01:21:28.835Z,1017.92
2017-08-15T01:21:29.432Z,1017.89
2017-08-15T01:21:30.033Z,1017.92
2017-08-15T01:22:23.492Z,1017.91
2017-08-15T01:22:24.093Z,1017.91
2017-08-15T01:22:24.687Z,1017.93
2017-08-15T01:22:25.287Z,1017.93
2017-08-15T01:22:25.887Z,1017.88
2017-08-15T01:22:26.488Z,1017.90
2017-08-15T01:22:27.090Z,1017.89
2017-08-15T01:22:27.691Z,1017.90
2017-08-15T01:23:24.213Z,1017.89
2017-08-15T01:23:24.814Z,1017.86
2017-08-15T01:23:25.411Z,1017.92
2017-08-15T01:24:19.922Z,1017.90
2017-08-15T01:24:20.513Z,1017.92
2017-08-15T01:24:21.115Z,1017.88
2017-08-15T01:24:21.724Z,1017.91
2017-08-15T01:24:22.324Z,1017.89
2017-08-15T01:24:22.920Z,1017.91
2017-08-15T01:24:23.518Z,1017.92
2017-08-15T01:24:24.129Z,1017.89
2017-08-15T01:25:17.572Z,1017.89
2017-08-15T01:25:18.166Z,1017.87
2017-08-15T01:25:18.769Z,1017.87
2017-08-15T01:25:19.369Z,1017.90
2017-08-15T01:25:19.969Z,1017.90
2017-08-15T01:25:20.570Z,1017.87
2017-08-15T01:25:21.175Z,1017.89
2017-08-15T01:25:21.764Z,1017.89
2017-08-15T01:26:15.252Z,1017.91
2017-08-15T01:26:15.819Z,1017.91
2017-08-15T01:26:16.422Z,1017.90
2017-08-15T01:26:17.022Z,1017.90
2017-08-15T01:26:17.625Z,1017.91
2017-08-15T01:26:18.224Z,1017.90
2017-08-15T01:26:18.821Z,1017.90
2017-08-15T01:26:19.421Z,1017.90
2017-08-15T01:27:13.900Z,1017.84
2017-08-15T01:27:14.500Z,1017.90
2017-08-15T01:27:15.098Z,1017.87
2017-08-15T01:27:15.697Z,1017.89
2017-08-15T01:27:16.297Z,1017.89
2017-08-15T01:27:16.903Z,1017.90
2017-08-15T01:27:17.496Z,1017.89
2017-08-15T01:27:18.099Z,1017.89
2017-08-15T01:28:11.552Z,1017.84
2017-08-15T01:28:12.150Z,1017.86
2017-08-15T01:28:12.751Z,1017.87
2017-08-15T01:28:13.352Z,1017.86
2017-08-15T01:28:13.953Z,1017.85
2017-08-15T01:28:14.556Z,1017.87
2017-08-15T01:28:15.151Z,1017.89
2017-08-15T01:28:15.750Z,1017.87
2017-08-15T01:29:09.204Z,1017.91
2017-08-15T01:29:09.801Z,1017.86
2017-08-15T01:29:10.399Z,1017.87
2017-08-15T01:29:10.996Z,1017.89
2017-08-15T01:29:11.603Z,1017.90